Time;durP1;ratioP1;P1;durP2;ratioP2;P2;SDS_P1;SDS_P2;PMS_P1;PMS_P2;Temp;Humidity;BMP_temperature;BMP_pressure;BME280_temperature;BME280_humidity;BME280_pressure;Samples;Min_cycle;Max_cycle;Signal;HPM_P1;HPM_P2
2022/12/31 00:01:19;;;;;;;;;1.00;0.00;;;;;-146.50;100.00;59256.41;5054393;28;45326;-81
2022/12/31 00:03:45;;;;;;;;;0.67;0.00;;;;;-146.50;100.00;59256.41;5073533;28;45655;-81
2022/12/31 00:06:19;;;;;;;;;0.00;0.00;;;;;-146.50;100.00;59256.41;5073260;28;45473;-79
2022/12/31 00:08:46;;;;;;;;;0.00;0.00;;;;;-146.50;100.00;59256.41;5088495;27;47266;-81
2022/12/31 00:11:12;;;;;;;;;0.00;0.00;;;;;-146.50;100.00;59256.41;5076010;28;45436;-80
2022/12/31 00:13:38;;;;;;;;;0.00;0.00;;;;;-146.50;100.00;59256.41;5075259;28;45428;-81
2022/12/31 00:16:09;;;;;;;;;1.33;0.00;;;;;-146.50;100.00;59256.41;5076114;28;45457;-79
2022/12/31 00:18:34;;;;;;;;;0.00;0.00;;;;;-146.50;100.00;59256.41;5076015;28;45353;-81
2022/12/31 00:21:04;;;;;;;;;1.33;0.00;;;;;-146.50;100.00;59256.41;5074566;28;45563;-79
2022/12/31 00:23:29;;;;;;;;;1.00;1.00;;;;;-146.50;100.00;59256.41;5074304;28;45452;-80
2022/12/31 00:25:54;;;;;;;;;0.00;0.00;;;;;-146.50;100.00;59256.41;5076094;27;45381;-80
2022/12/31 00:28:20;;;;;;;;;3.00;0.00;;;;;-146.50;100.00;59256.41;5074286;27;45637;-81
2022/12/31 00:30:45;;;;;;;;;2.00;0.00;;;;;-146.50;100.00;59256.41;5075047;28;45374;-80
2022/12/31 00:33:10;;;;;;;;;0.67;0.67;;;;;-146.50;100.00;59256.41;5076429;28;45321;-80
2022/12/31 00:35:36;;;;;;;;;1.00;0.00;;;;;-146.50;100.00;59256.41;5074810;28;45392;-81
2022/12/31 00:38:01;;;;;;;;;0.00;0.00;;;;;-146.50;100.00;59256.41;5075935;28;45364;-80
2022/12/31 00:40:28;;;;;;;;;1.67;1.00;;;;;-146.50;100.00;59256.41;5074943;28;45425;-84
2022/12/31 00:42:53;;;;;;;;;0.00;0.00;;;;;-146.50;100.00;59256.41;5076382;28;45297;-79
2022/12/31 00:45:19;;;;;;;;;0.33;0.00;;;;;-146.50;100.00;59256.41;5075323;28;45553;-83
2022/12/31 00:47:44;;;;;;;;;1.67;0.00;;;;;-146.50;100.00;59256.41;5083415;27;45912;-82
2022/12/31 00:50:10;;;;;;;;;0.67;0.67;;;;;-146.50;100.00;59256.41;5083045;27;45470;-82
2022/12/31 00:52:35;;;;;;;;;0.00;0.00;;;;;-146.50;100.00;59256.41;5076164;27;45348;-80
2022/12/31 00:55:01;;;;;;;;;0.00;0.00;;;;;-146.50;100.00;59256.41;5076989;27;45597;-82
2022/12/31 00:57:26;;;;;;;;;0.00;0.00;;;;;-146.50;100.00;59256.41;5077387;28;45357;-83
2022/12/31 00:59:51;;;;;;;;;1.00;0.00;;;;;-146.50;100.00;59256.41;5079337;28;45425;-82
2022/12/31 01:02:17;;;;;;;;;1.00;1.00;;;;;-146.50;100.00;59256.41;5079161;27;46395;-83
2022/12/31 01:04:43;;;;;;;;;1.00;1.00;;;;;-146.50;100.00;59256.41;5077166;27;45596;-81
2022/12/31 01:07:08;;;;;;;;;0.00;0.00;;;;;-146.50;100.00;59256.41;5075225;27;46300;-81
2022/12/31 01:09:34;;;;;;;;;0.67;0.00;;;;;-146.50;100.00;59256.41;5073887;28;45639;-82
2022/12/31 01:11:59;;;;;;;;;0.00;0.00;;;;;-146.50;100.00;59256.41;5075616;27;45497;-81
2022/12/31 01:14:25;;;;;;;;;0.67;0.00;;;;;-146.50;100.00;59256.41;5074893;28;45456;-83
2022/12/31 01:16:52;;;;;;;;;0.00;0.00;;;;;-146.50;100.00;59256.41;5074713;28;45793;-84
2022/12/31 01:19:21;;;;;;;;;1.33;0.00;;;;;-146.50;100.00;59256.41;5074930;28;45276;-86
2022/12/31 01:21:47;;;;;;;;;0.00;0.00;;;;;-146.50;100.00;59256.41;5072019;28;45489;-85
2022/12/31 01:24:13;;;;;;;;;3.00;3.00;;;;;-146.50;100.00;59256.41;5074794;27;45444;-81
2022/12/31 01:26:39;;;;;;;;;2.00;1.67;;;;;-146.50;100.00;59256.41;5074294;28;45318;-83
2022/12/31 01:29:06;;;;;;;;;11.00;9.33;;;;;-146.50;100.00;59256.41;5073008;28;45500;-80
2022/12/31 01:31:32;;;;;;;;;1.67;1.67;;;;;-146.50;100.00;59256.41;5074165;28;45741;-81
2022/12/31 01:33:58;;;;;;;;;0.33;0.00;;;;;-146.50;100.00;59256.41;5074276;27;45311;-81
2022/12/31 01:36:26;;;;;;;;;1.67;0.67;;;;;-146.50;100.00;59256.41;5074086;27;45525;-83
2022/12/31 01:38:56;;;;;;;;;0.00;0.00;;;;;-146.50;100.00;59256.41;5074763;28;45429;-82
2022/12/31 01:41:24;;;;;;;;;0.00;0.00;;;;;-146.50;100.00;59256.41;5074979;28;45571;-81
2022/12/31 01:44:00;;;;;;;;;0.67;0.67;;;;;-146.50;100.00;59256.41;5072295;28;45326;-82
2022/12/31 01:46:36;;;;;;;;;0.00;0.00;;;;;-146.50;100.00;59256.41;5074506;28;45361;-83
2022/12/31 01:49:28;;;;;;;;;0.33;0.00;;;;;-146.50;100.00;59256.41;5074568;28;45359;-79
2022/12/31 01:52:05;;;;;;;;;1.00;1.00;;;;;-146.50;100.00;59256.41;5073401;28;45377;-83
2022/12/31 01:54:36;;;;;;;;;1.00;0.00;;;;;-146.50;100.00;59256.41;5072148;28;45256;-80
2022/12/31 01:57:04;;;;;;;;;1.00;1.00;;;;;-146.50;100.00;59256.41;5075194;28;45365;-81
2022/12/31 01:59:30;;;;;;;;;0.00;0.00;;;;;-146.50;100.00;59256.41;5073336;28;45434;-81
2022/12/31 02:01:57;;;;;;;;;0.00;0.00;;;;;-146.50;100.00;59256.41;5073724;28;45327;-83
2022/12/31 02:04:24;;;;;;;;;0.00;0.00;;;;;-146.50;100.00;59256.41;5074552;28;45527;-83
2022/12/31 02:06:57;;;;;;;;;0.67;0.00;;;;;-146.50;100.00;59256.41;5072440;28;46100;-82
2022/12/31 02:09:24;;;;;;;;;0.00;0.00;;;;;-146.50;100.00;59256.41;5074586;27;45404;-82
2022/12/31 02:11:49;;;;;;;;;0.00;0.00;;;;;-146.50;100.00;59256.41;5107400;27;45431;-79
2022/12/31 02:14:21;;;;;;;;;0.00;0.00;;;;;-146.50;100.00;59256.41;5074578;28;45469;-81
2022/12/31 02:17:09;;;;;;;;;1.67;0.00;;;;;-146.50;100.00;59256.41;5074490;27;45957;-79
2022/12/31 02:20:11;;;;;;;;;1.00;1.00;;;;;-146.50;100.00;59256.41;5072648;28;45522;-82
2022/12/31 02:22:36;;;;;;;;;0.33;0.33;;;;;-146.50;100.00;59256.41;5105979;27;45258;-81
2022/12/31 02:25:23;;;;;;;;;0.00;0.00;;;;;-146.50;100.00;59256.41;5073087;27;45503;-80
2022/12/31 02:28:08;;;;;;;;;0.67;0.00;;;;;-146.50;100.00;59256.41;5072715;27;45488;-81
2022/12/31 02:30:35;;;;;;;;;0.00;0.00;;;;;-146.50;100.00;59256.41;5073108;27;45512;-80
2022/12/31 02:33:28;;;;;;;;;0.67;0.00;;;;;-146.50;100.00;59256.41;5073865;28;45366;-81
2022/12/31 02:35:59;;;;;;;;;1.00;0.00;;;;;-146.50;100.00;59256.41;5074070;27;45492;-79
2022/12/31 02:38:31;;;;;;;;;0.00;0.00;;;;;-146.50;100.00;59256.41;5073576;28;46352;-81
2022/12/31 02:40:58;;;;;;;;;1.00;0.00;;;;;-146.50;100.00;59256.41;5069758;28;45385;-79
2022/12/31 02:43:24;;;;;;;;;0.00;0.00;;;;;-146.50;100.00;59256.41;5074170;27;45378;-80
2022/12/31 02:46:12;;;;;;;;;1.33;0.00;;;;;-146.50;100.00;59256.41;5073264;28;45317;-80
2022/12/31 02:48:48;;;;;;;;;1.00;0.33;;;;;-146.50;100.00;59256.41;5070816;28;45557;-80
2022/12/31 02:51:16;;;;;;;;;0.00;0.00;;;;;-146.50;100.00;59256.41;5072747;28;45493;-80
2022/12/31 02:54:06;;;;;;;;;0.00;0.00;;;;;-146.50;100.00;59256.41;5073763;27;45508;-80
2022/12/31 02:56:49;;;;;;;;;0.00;0.00;;;;;-146.50;100.00;59256.41;5073381;28;45534;-80
2022/12/31 03:02:19;;;;;;;;;0.00;0.00;;;;;-146.50;100.00;59256.41;5073365;28;45386;-80
2022/12/31 03:04:51;;;;;;;;;0.00;0.00;;;;;-146.50;100.00;59256.41;5073562;28;45449;-79
2022/12/31 03:07:22;;;;;;;;;0.00;0.00;;;;;-146.50;100.00;59256.41;5072451;28;45460;-80
2022/12/31 03:09:48;;;;;;;;;0.00;0.00;;;;;-146.50;100.00;59256.41;5073410;28;45310;-80
2022/12/31 03:14:59;;;;;;;;;0.00;0.00;;;;;-146.50;100.00;59256.41;5076458;27;45384;-79
2022/12/31 03:17:25;;;;;;;;;0.00;0.00;;;;;-146.50;100.00;59256.41;5081855;27;45425;-80
2022/12/31 03:22:38;;;;;;;;;1.33;0.00;;;;;-146.50;100.00;59256.41;5078919;27;45540;-79
2022/12/31 03:27:50;;;;;;;;;1.00;0.00;;;;;-146.50;100.00;59256.41;5071120;28;45366;-79
2022/12/31 03:30:17;;;;;;;;;0.00;0.00;;;;;-146.50;100.00;59256.41;5072307;27;46517;-79
2022/12/31 03:32:44;;;;;;;;;1.67;0.67;;;;;-146.50;100.00;59256.41;5070127;28;45303;-79
2022/12/31 03:35:12;;;;;;;;;0.00;0.00;;;;;-146.50;100.00;59256.41;5072396;27;45401;-82
2022/12/31 03:37:39;;;;;;;;;0.00;0.00;;;;;-146.50;100.00;59256.41;5072373;28;45433;-83
2022/12/31 03:40:06;;;;;;;;;0.00;0.00;;;;;-146.50;100.00;59256.41;5069957;27;46197;-83
2022/12/31 03:42:32;;;;;;;;;0.00;0.00;;;;;-146.50;100.00;59256.41;5062881;27;45502;-83
2022/12/31 03:44:58;;;;;;;;;0.00;0.00;;;;;-146.50;100.00;59256.41;5059090;28;45417;-84
2022/12/31 03:47:23;;;;;;;;;0.00;0.00;;;;;-146.50;100.00;59256.41;5076942;28;45400;-84
2022/12/31 03:49:49;;;;;;;;;0.00;0.00;;;;;-146.50;100.00;59256.41;5076386;28;46550;-84
2022/12/31 03:52:14;;;;;;;;;1.00;0.00;;;;;-146.50;100.00;59256.41;5065480;27;45476;-84
2022/12/31 03:54:40;;;;;;;;;0.00;0.00;;;;;-146.50;100.00;59256.41;5065077;28;45310;-83
2022/12/31 03:57:05;;;;;;;;;1.00;0.00;;;;;-146.50;100.00;59256.41;5057066;28;45386;-83
2022/12/31 03:59:31;;;;;;;;;0.00;0.00;;;;;-146.50;100.00;59256.41;5055379;28;45950;-82
2022/12/31 04:01:56;;;;;;;;;2.00;1.00;;;;;-146.50;100.00;59256.41;5056916;28;45451;-83
2022/12/31 04:04:21;;;;;;;;;2.00;0.00;;;;;-146.50;100.00;59256.41;5068917;28;45489;-82
2022/12/31 04:06:47;;;;;;;;;2.00;1.00;;;;;-146.50;100.00;59256.41;5078532;27;45339;-83
2022/12/31 04:09:12;;;;;;;;;0.67;0.67;;;;;-146.50;100.00;59256.41;5077185;27;46324;-84
2022/12/31 04:11:38;;;;;;;;;1.00;0.67;;;;;-146.50;100.00;59256.41;5076660;27;45270;-82
2022/12/31 04:14:03;;;;;;;;;0.00;0.00;;;;;-146.50;100.00;59256.41;5076203;27;45320;-81
2022/12/31 04:16:29;;;;;;;;;1.00;0.00;;;;;-146.50;100.00;59256.41;5076627;27;45327;-82
2022/12/31 04:18:54;;;;;;;;;0.00;0.00;;;;;-146.50;100.00;59256.41;5076127;27;46196;-82
2022/12/31 04:21:20;;;;;;;;;0.67;0.00;;;;;-146.50;100.00;59256.41;5076649;28;45386;-81
2022/12/31 04:23:45;;;;;;;;;0.00;0.00;;;;;-146.50;100.00;59256.41;5077185;27;45310;-81
2022/12/31 04:26:10;;;;;;;;;0.00;0.00;;;;;-146.50;100.00;59256.41;5077776;27;45318;-81
2022/12/31 04:28:36;;;;;;;;;0.33;0.00;;;;;-146.50;100.00;59256.41;5077573;27;46038;-81
2022/12/31 04:31:03;;;;;;;;;0.67;0.67;;;;;-146.50;100.00;59256.41;5080114;27;45265;-80
2022/12/31 04:33:29;;;;;;;;;1.00;1.00;;;;;-146.50;100.00;59256.41;5079468;27;45446;-81
2022/12/31 04:36:03;;;;;;;;;1.00;0.00;;;;;-146.50;100.00;59256.41;5077225;28;45371;-79
2022/12/31 04:38:29;;;;;;;;;1.00;1.00;;;;;-146.50;100.00;59256.41;5078601;27;45579;-81
2022/12/31 04:43:39;;;;;;;;;0.67;0.00;;;;;-146.50;100.00;59256.41;5079478;28;45456;-81
2022/12/31 04:46:05;;;;;;;;;0.67;0.00;;;;;-146.50;100.00;59256.41;5076451;28;45362;-82
2022/12/31 04:48:32;;;;;;;;;3.00;1.00;;;;;-146.50;100.00;59256.41;5075858;28;45448;-82
2022/12/31 04:50:57;;;;;;;;;0.00;0.00;;;;;-146.50;100.00;59256.41;5076422;27;45312;-84
2022/12/31 04:53:23;;;;;;;;;2.00;0.00;;;;;-146.50;100.00;59256.41;5076494;27;45876;-80
2022/12/31 04:55:49;;;;;;;;;0.33;0.33;;;;;-146.50;100.00;59256.41;5076631;28;45500;-82
2022/12/31 04:58:14;;;;;;;;;2.00;1.00;;;;;-146.50;100.00;59256.41;5075749;27;45424;-80
2022/12/31 05:00:40;;;;;;;;;0.00;0.00;;;;;-146.50;100.00;59256.41;5075620;27;45286;-80
2022/12/31 05:03:05;;;;;;;;;2.33;0.00;;;;;-146.50;100.00;59256.41;5076235;27;45302;-83
2022/12/31 05:05:30;;;;;;;;;1.00;1.00;;;;;-146.50;100.00;59256.41;5076007;27;45425;-81
2022/12/31 05:07:56;;;;;;;;;1.00;0.33;;;;;-146.50;100.00;59256.41;5075960;28;45409;-82
2022/12/31 05:10:22;;;;;;;;;1.67;0.33;;;;;-146.50;100.00;59256.41;5076090;27;45322;-80
2022/12/31 05:12:47;;;;;;;;;0.00;0.00;;;;;-146.50;100.00;59256.41;5075452;27;45297;-80
2022/12/31 05:15:13;;;;;;;;;0.00;0.00;;;;;-146.50;100.00;59256.41;5076190;27;45693;-80
2022/12/31 05:17:38;;;;;;;;;0.00;0.00;;;;;-146.50;100.00;59256.41;5076002;27;46037;-82
2022/12/31 05:20:04;;;;;;;;;0.33;0.00;;;;;-146.50;100.00;59256.41;5074326;28;45410;-83
2022/12/31 05:22:29;;;;;;;;;1.67;0.67;;;;;-146.50;100.00;59256.41;5074600;28;45394;-83
2022/12/31 05:24:56;;;;;;;;;0.33;0.33;;;;;-146.50;100.00;59256.41;5074656;27;45672;-81
2022/12/31 05:27:22;;;;;;;;;2.00;2.00;;;;;-146.50;100.00;59256.41;5075599;27;45387;-82
2022/12/31 05:29:48;;;;;;;;;0.00;0.00;;;;;-146.50;100.00;59256.41;5075554;28;45396;-82
2022/12/31 05:32:13;;;;;;;;;2.00;1.00;;;;;-146.50;100.00;59256.41;5075804;27;45298;-81
2022/12/31 05:34:38;;;;;;;;;0.33;0.00;;;;;-146.50;100.00;59256.41;5074285;28;45403;-80
2022/12/31 05:37:04;;;;;;;;;0.00;0.00;;;;;-146.50;100.00;59256.41;5075160;27;46424;-81
2022/12/31 05:39:29;;;;;;;;;1.00;1.00;;;;;-146.50;100.00;59256.41;5075244;27;45558;-80
2022/12/31 05:41:54;;;;;;;;;0.33;0.33;;;;;-146.50;100.00;59256.41;5075279;27;45864;-81
2022/12/31 05:44:20;;;;;;;;;0.67;0.00;;;;;-146.50;100.00;59256.41;5075778;27;45448;-81
2022/12/31 05:46:48;;;;;;;;;0.00;0.00;;;;;-146.50;100.00;59256.41;5075410;27;45320;-80
2022/12/31 05:49:13;;;;;;;;;0.00;0.00;;;;;-146.50;100.00;59256.41;5075391;27;45324;-79
2022/12/31 05:51:39;;;;;;;;;0.00;0.00;;;;;-146.50;100.00;59256.41;5086777;27;45502;-74
2022/12/31 05:54:04;;;;;;;;;0.00;0.00;;;;;-146.50;100.00;59256.41;5075447;27;45522;-75
2022/12/31 05:56:30;;;;;;;;;0.67;0.67;;;;;-146.50;100.00;59256.41;5073850;27;46032;-74
2022/12/31 05:58:55;;;;;;;;;1.00;1.00;;;;;-146.50;100.00;59256.41;5075357;27;45363;-75
2022/12/31 06:01:21;;;;;;;;;0.67;0.67;;;;;-146.50;100.00;59256.41;5075460;27;45732;-74
2022/12/31 06:03:46;;;;;;;;;0.00;0.00;;;;;-146.50;100.00;59256.41;5075455;27;45476;-74
2022/12/31 06:06:11;;;;;;;;;0.00;0.00;;;;;-146.50;100.00;59256.41;5074876;28;46426;-76
2022/12/31 06:08:37;;;;;;;;;0.67;0.67;;;;;-146.50;100.00;59256.41;5073033;28;45442;-74
2022/12/31 06:11:02;;;;;;;;;0.00;0.00;;;;;-146.50;100.00;59256.41;5074851;27;45394;-75
2022/12/31 06:13:28;;;;;;;;;1.67;0.00;;;;;-146.50;100.00;59256.41;5074921;27;45276;-73
2022/12/31 06:15:53;;;;;;;;;2.00;0.33;;;;;-146.50;100.00;59256.41;5073423;28;47990;-74
2022/12/31 06:18:18;;;;;;;;;3.67;1.00;;;;;-146.50;100.00;59256.41;5074571;27;45315;-74
2022/12/31 06:20:44;;;;;;;;;1.67;1.00;;;;;-146.50;100.00;59256.41;5073484;28;45440;-73
2022/12/31 06:23:09;;;;;;;;;2.67;0.67;;;;;-146.50;100.00;59256.41;5074743;27;45374;-75
2022/12/31 06:25:35;;;;;;;;;3.67;2.00;;;;;-146.50;100.00;59256.41;5074748;27;45604;-73
2022/12/31 06:28:04;;;;;;;;;2.00;2.00;;;;;-146.50;100.00;59256.41;5074429;27;45398;-74
2022/12/31 06:30:30;;;;;;;;;1.00;0.33;;;;;-146.50;100.00;59256.41;5074590;27;45460;-74
2022/12/31 06:32:56;;;;;;;;;1.00;1.00;;;;;-146.50;100.00;59256.41;5074661;27;45447;-74
2022/12/31 06:35:21;;;;;;;;;1.00;1.00;;;;;-146.50;100.00;59256.41;5074362;27;46211;-73
2022/12/31 06:37:47;;;;;;;;;2.00;1.00;;;;;-146.50;100.00;59256.41;5074399;28;45401;-75
2022/12/31 06:40:12;;;;;;;;;2.67;2.00;;;;;-146.50;100.00;59256.41;5074251;27;45377;-73
2022/12/31 06:42:38;;;;;;;;;2.67;1.00;;;;;-146.50;100.00;59256.41;5071812;28;45441;-74
2022/12/31 06:45:04;;;;;;;;;2.00;1.00;;;;;-146.50;100.00;59256.41;5073389;27;45466;-75
2022/12/31 06:47:29;;;;;;;;;1.00;1.00;;;;;-146.50;100.00;59256.41;5089997;27;45720;-75
2022/12/31 06:49:55;;;;;;;;;0.33;0.33;;;;;-146.50;100.00;59256.41;5074414;28;45366;-73
2022/12/31 06:52:20;;;;;;;;;1.00;1.00;;;;;-146.50;100.00;59256.41;5074586;28;45426;-75
2022/12/31 06:54:46;;;;;;;;;1.67;1.00;;;;;-146.50;100.00;59256.41;5073719;28;45513;-74
2022/12/31 06:57:12;;;;;;;;;2.67;1.67;;;;;-146.50;100.00;59256.41;5074227;27;45404;-74
2022/12/31 06:59:38;;;;;;;;;1.00;1.00;;;;;-146.50;100.00;59256.41;5074579;27;45298;-74
2022/12/31 07:02:12;;;;;;;;;1.00;1.00;;;;;-146.50;100.00;59256.41;5074140;27;45349;-74
2022/12/31 07:04:58;;;;;;;;;1.00;0.00;;;;;-146.50;100.00;59256.41;5074047;27;45688;-74
2022/12/31 07:07:37;;;;;;;;;1.00;1.00;;;;;-146.50;100.00;59256.41;5074006;27;45681;-74
2022/12/31 07:10:16;;;;;;;;;2.00;2.00;;;;;-146.50;100.00;59256.41;5073983;27;45472;-74
2022/12/31 07:12:56;;;;;;;;;1.00;1.00;;;;;-146.50;100.00;59256.41;5073709;27;45408;-73
2022/12/31 07:15:40;;;;;;;;;1.00;1.00;;;;;-146.50;100.00;59256.41;5071864;28;46324;-73
2022/12/31 07:18:12;;;;;;;;;2.33;1.00;;;;;-146.50;100.00;59256.41;5073886;27;45404;-74
2022/12/31 07:20:38;;;;;;;;;1.00;1.00;;;;;-146.50;100.00;59256.41;5076214;27;45480;-73
2022/12/31 07:23:04;;;;;;;;;2.00;1.00;;;;;-146.50;100.00;59256.41;5077273;27;45425;-74
2022/12/31 07:25:29;;;;;;;;;3.67;1.00;;;;;-146.50;100.00;59256.41;5073500;27;46111;-75
2022/12/31 07:27:59;;;;;;;;;2.00;1.67;;;;;-146.50;100.00;59256.41;5077245;28;45898;-73
2022/12/31 07:30:48;;;;;;;;;1.67;1.67;;;;;-146.50;100.00;59256.41;5077516;27;45291;-74
2022/12/31 07:33:46;;;;;;;;;2.00;2.00;;;;;-146.50;100.00;59256.41;5054018;28;45550;-74
2022/12/31 07:36:39;;;;;;;;;4.67;1.33;;;;;-146.50;100.00;59256.41;5062069;28;45465;-74
2022/12/31 07:39:11;;;;;;;;;1.00;1.00;;;;;-146.50;100.00;59256.41;5076941;27;45456;-74
2022/12/31 07:41:49;;;;;;;;;0.00;0.00;;;;;-146.50;100.00;59256.41;5076629;28;45423;-74
2022/12/31 07:44:32;;;;;;;;;5.00;1.00;;;;;-146.50;100.00;59256.41;5076708;27;45429;-73
2022/12/31 07:47:00;;;;;;;;;0.00;0.00;;;;;-146.50;100.00;59256.41;5091984;27;48492;-73
2022/12/31 07:49:28;;;;;;;;;2.00;2.00;;;;;-146.50;100.00;59256.41;5077231;27;45326;-73
2022/12/31 07:51:54;;;;;;;;;2.67;2.00;;;;;-146.50;100.00;59256.41;5077348;27;45409;-73
2022/12/31 07:54:20;;;;;;;;;1.00;1.00;;;;;-146.50;100.00;59256.41;5077100;27;45770;-73
2022/12/31 07:56:46;;;;;;;;;2.67;2.00;;;;;-146.50;100.00;59256.41;5076017;28;45358;-73
2022/12/31 07:59:32;;;;;;;;;4.33;2.33;;;;;-146.50;100.00;59256.41;5076872;27;45386;-73
2022/12/31 08:02:23;;;;;;;;;3.00;3.00;;;;;-146.50;100.00;59256.41;5014217;28;45539;-73
2022/12/31 08:05:01;;;;;;;;;4.33;2.00;;;;;-146.50;100.00;59256.41;5014666;28;45454;-74
2022/12/31 08:07:41;;;;;;;;;1.00;1.00;;;;;-146.50;100.00;59256.41;5014139;28;45459;-74
2022/12/31 08:10:33;;;;;;;;;3.00;2.00;;;;;-146.50;100.00;59256.41;5015140;28;45476;-73
2022/12/31 08:13:02;;;;;;;;;2.00;2.00;;;;;-146.50;100.00;59256.41;5013855;28;45514;-74
2022/12/31 08:15:28;;;;;;;;;3.00;3.00;;;;;-146.50;100.00;59256.41;5011823;28;45631;-74
2022/12/31 08:17:54;;;;;;;;;4.00;3.00;;;;;-146.50;100.00;59256.41;5011303;28;47205;-75
2022/12/31 08:20:19;;;;;;;;;3.00;3.00;;;;;-146.50;100.00;59256.41;5010408;28;45459;-73
2022/12/31 08:22:44;;;;;;;;;2.00;2.00;;;;;-146.50;100.00;59256.41;5009954;28;45457;-75
2022/12/31 08:25:26;;;;;;;;;1.67;1.67;;;;;-146.50;100.00;59256.41;5010079;28;45396;-76
2022/12/31 08:28:19;;;;;;;;;5.00;2.00;;;;;-146.50;100.00;59256.41;5007444;28;45626;-75
2022/12/31 08:30:59;;;;;;;;;2.33;2.33;;;;;-146.50;100.00;59256.41;5008626;28;45606;-74
2022/12/31 08:33:31;;;;;;;;;2.67;1.67;;;;;-146.50;100.00;59256.41;4992943;28;45396;-74
2022/12/31 08:35:59;;;;;;;;;3.00;3.00;;;;;-146.50;100.00;59256.41;5009598;28;45547;-74
2022/12/31 08:38:42;;;;;;;;;1.67;1.33;;;;;-146.50;100.00;59256.41;5023052;28;46175;-75
2022/12/31 08:41:27;;;;;;;;;2.00;2.00;;;;;-146.50;100.00;59256.41;5072330;28;45418;-74
2022/12/31 08:44:15;;;;;;;;;2.33;2.00;;;;;-146.50;100.00;59256.41;5071116;28;45402;-74
2022/12/31 08:47:08;;;;;;;;;3.33;1.00;;;;;-146.50;100.00;59256.41;5073518;28;45431;-74
2022/12/31 08:49:34;;;;;;;;;3.00;2.00;;;;;-146.50;100.00;59256.41;5073391;28;45586;-73
2022/12/31 08:52:01;;;;;;;;;3.67;2.00;;;;;-146.50;100.00;59256.41;5073812;27;45408;-74
2022/12/31 08:54:27;;;;;;;;;2.00;2.00;;;;;-146.50;100.00;59256.41;5073673;27;45409;-74
2022/12/31 08:57:13;;;;;;;;;3.00;3.00;;;;;-146.50;100.00;59256.41;5074081;27;45362;-74
2022/12/31 09:00:14;;;;;;;;;2.67;1.67;;;;;-146.50;100.00;59256.41;5073630;27;46464;-74
2022/12/31 09:02:51;;;;;;;;;3.67;1.00;;;;;-146.50;100.00;59256.41;5059725;27;45515;-74
2022/12/31 09:05:16;;;;;;;;;2.00;2.00;;;;;-146.50;100.00;59256.41;5073801;27;45460;-74
2022/12/31 09:08:15;;;;;;;;;2.00;2.00;;;;;-146.50;100.00;59256.41;5073593;28;45630;-75
2022/12/31 09:11:02;;;;;;;;;3.67;1.33;;;;;-146.50;100.00;59256.41;5073347;27;46155;-75
2022/12/31 09:13:35;;;;;;;;;3.67;2.00;;;;;-146.50;100.00;59256.41;5073261;27;45488;-75
2022/12/31 09:16:17;;;;;;;;;3.33;2.00;;;;;-146.50;100.00;59256.41;5073270;27;45452;-74
2022/12/31 09:18:43;;;;;;;;;3.00;3.00;;;;;-146.50;100.00;59256.41;5073328;27;45662;-75
2022/12/31 09:21:10;;;;;;;;;8.33;2.33;;;;;-146.50;100.00;59256.41;5072932;28;46344;-75
2022/12/31 09:23:36;;;;;;;;;2.00;2.00;;;;;-146.50;100.00;59256.41;5073289;27;45479;-75
2022/12/31 09:26:28;;;;;;;;;3.67;3.00;;;;;-146.50;100.00;59256.41;5073304;27;45607;-75
2022/12/31 09:29:30;;;;;;;;;5.00;3.00;;;;;-146.50;100.00;59256.41;5010264;28;45543;-75
2022/12/31 09:32:03;;;;;;;;;2.67;2.67;;;;;-146.50;100.00;59256.41;5009902;28;45843;-75
2022/12/31 09:34:40;;;;;;;;;2.00;2.00;;;;;-146.50;100.00;59256.41;5009900;28;45727;-75
2022/12/31 09:37:14;;;;;;;;;2.00;2.00;;;;;-146.50;100.00;59256.41;5010517;28;45410;-74
2022/12/31 09:39:42;;;;;;;;;2.67;2.67;;;;;-146.50;100.00;59256.41;5010231;28;45403;-75
2022/12/31 09:42:13;;;;;;;;;1.33;1.33;;;;;-146.50;100.00;59256.41;5009221;28;46194;-74
2022/12/31 09:44:53;;;;;;;;;3.00;2.67;;;;;-146.50;100.00;59256.41;5009663;28;45487;-75
2022/12/31 09:47:33;;;;;;;;;3.67;2.00;;;;;-146.50;100.00;59256.41;5009004;28;45586;-75
2022/12/31 09:50:36;;;;;;;;;1.00;1.00;;;;;-146.50;100.00;59256.41;5009761;28;45617;-75
2022/12/31 09:53:17;;;;;;;;;4.67;3.00;;;;;-146.50;100.00;59256.41;4989916;28;45471;-77
2022/12/31 09:55:53;;;;;;;;;1.00;1.00;;;;;-146.50;100.00;59256.41;4977794;28;45528;-76
2022/12/31 09:58:31;;;;;;;;;4.67;2.00;;;;;-146.50;100.00;59256.41;5009839;28;45515;-76
2022/12/31 10:00:59;;;;;;;;;3.00;2.67;;;;;-146.50;100.00;59256.41;5009925;28;45446;-76
2022/12/31 10:03:54;;;;;;;;;2.67;2.00;;;;;-146.50;100.00;59256.41;5008835;28;45763;-76
2022/12/31 10:06:30;;;;;;;;;2.67;2.67;;;;;-146.50;100.00;59256.41;5035914;28;45619;-75
2022/12/31 10:09:29;;;;;;;;;4.00;3.00;;;;;-146.50;100.00;59256.41;5052379;28;45500;-76
2022/12/31 10:12:22;;;;;;;;;2.00;2.00;;;;;-146.50;100.00;59256.41;5052497;28;45367;-76
2022/12/31 10:14:51;;;;;;;;;2.00;2.00;;;;;-146.50;100.00;59256.41;5054592;28;45473;-76
2022/12/31 10:17:45;;;;;;;;;3.67;2.67;;;;;-146.50;100.00;59256.41;5072347;28;45513;-76
2022/12/31 10:20:35;;;;;;;;;2.00;2.00;;;;;-146.50;100.00;59256.41;5069243;28;45446;-75
2022/12/31 10:23:28;;;;;;;;;3.00;3.00;;;;;-146.50;100.00;59256.41;5071801;28;45415;-75
2022/12/31 10:26:12;;;;;;;;;2.00;2.00;;;;;-146.50;100.00;59256.41;5072546;28;47342;-75
2022/12/31 10:29:22;;;;;;;;;2.33;1.67;;;;;-146.50;100.00;59256.41;5072188;28;45391;-74
2022/12/31 10:31:53;;;;;;;;;3.00;2.00;;;;;-146.50;100.00;59256.41;5007415;28;45499;-74
2022/12/31 10:34:39;;;;;;;;;4.00;2.33;;;;;-146.50;100.00;59256.41;5009897;28;45567;-75
2022/12/31 10:37:16;;;;;;;;;3.00;3.00;;;;;-146.50;100.00;59256.41;4993361;28;47286;-75
2022/12/31 10:40:16;;;;;;;;;3.00;2.00;;;;;-146.50;100.00;59256.41;5007951;28;45436;-76
2022/12/31 10:43:03;;;;;;;;;4.00;3.00;;;;;-146.50;100.00;59256.41;5009208;28;45468;-75
2022/12/31 10:46:06;;;;;;;;;2.00;2.00;;;;;-146.50;100.00;59256.41;5006749;28;45622;-76
2022/12/31 10:48:50;;;;;;;;;1.67;1.67;;;;;-146.50;100.00;59256.41;4990709;28;48276;-76
2022/12/31 10:52:00;;;;;;;;;2.00;0.00;;;;;-146.50;100.00;59256.41;5008260;28;45452;-76
2022/12/31 10:54:34;;;;;;;;;3.33;2.00;;;;;-146.50;100.00;59256.41;5003230;28;45590;-76
2022/12/31 10:57:20;;;;;;;;;2.67;1.33;;;;;-146.50;100.00;59256.41;5009107;28;45558;-76
2022/12/31 11:00:17;;;;;;;;;1.00;1.00;;;;;-146.50;100.00;59256.41;5006855;28;46184;-76
2022/12/31 11:03:14;;;;;;;;;3.00;2.00;;;;;-146.50;100.00;59256.41;5006666;28;45359;-75
2022/12/31 11:06:07;;;;;;;;;2.33;1.67;;;;;-146.50;100.00;59256.41;5008701;28;45412;-74
2022/12/31 11:09:28;;;;;;;;;2.00;1.00;;;;;-146.50;100.00;59256.41;5052126;28;45512;-75
2022/12/31 11:12:09;;;;;;;;;1.00;1.00;;;;;-146.50;100.00;59256.41;4968524;28;45463;-75
2022/12/31 11:14:51;;;;;;;;;4.00;3.00;;;;;-146.50;100.00;59256.41;4968054;28;45477;-75
2022/12/31 11:17:38;;;;;;;;;4.00;2.00;;;;;-146.50;100.00;59256.41;4968569;28;45500;-76
2022/12/31 11:20:18;;;;;;;;;1.00;1.00;;;;;-146.50;100.00;59256.41;4966964;28;45609;-75
2022/12/31 11:22:46;;;;;;;;;2.00;1.00;;;;;-146.50;100.00;59256.41;4969591;28;45569;-76
2022/12/31 11:25:14;;;;;;;;;2.67;2.67;;;;;-146.50;100.00;59256.41;4968507;28;45508;-76
2022/12/31 11:28:27;;;;;;;;;4.33;2.00;;;;;-146.50;100.00;59256.41;4970257;28;45505;-76
2022/12/31 11:31:15;;;;;;;;;2.00;2.00;;;;;-146.50;100.00;59256.41;4966569;28;45647;-76
2022/12/31 11:34:16;;;;;;;;;2.00;2.00;;;;;-146.50;100.00;59256.41;4969940;28;46369;-76
2022/12/31 11:37:12;;;;;;;;;1.00;1.00;;;;;-146.50;100.00;59256.41;4970507;28;45564;-76
2022/12/31 11:39:37;;;;;;;;;2.67;1.67;;;;;-146.50;100.00;59256.41;4969740;28;45498;-76
2022/12/31 11:42:39;;;;;;;;;2.00;2.00;;;;;-146.50;100.00;59256.41;4969419;28;45377;-77
2022/12/31 11:45:39;;;;;;;;;2.00;2.00;;;;;-146.50;100.00;59256.41;4970400;28;45526;-75
2022/12/31 11:48:43;;;;;;;;;1.33;0.33;;;;;-146.50;100.00;59256.41;4995065;28;45425;-76
2022/12/31 11:51:36;;;;;;;;;2.00;2.00;;;;;-146.50;100.00;59256.41;5053140;28;45350;-76